createdAt,value
2018-10-06T00:00:42.854Z,1010.74
2018-10-06T00:01:42.873Z,1010.72
2018-10-06T00:02:42.891Z,1010.71
2018-10-06T00:03:42.909Z,1010.68
2018-10-06T00:04:42.929Z,1010.66
2018-10-06T00:05:42.946Z,1010.68
2018-10-06T00:06:42.966Z,1010.67
2018-10-06T00:07:42.984Z,1010.72
2018-10-06T00:08:43.003Z,1010.72
2018-10-06T00:09:43.022Z,1010.75
2018-10-06T00:10:43.040Z,1010.7
2018-10-06T00:11:43.062Z,1010.7
2018-10-06T00:12:43.079Z,1010.65
2018-10-06T00:13:43.096Z,1010.69
2018-10-06T00:14:43.116Z,1010.67
2018-10-06T00:15:43.134Z,1010.61
2018-10-06T00:16:43.152Z,1010.6
2018-10-06T00:18:43.190Z,1010.56
2018-10-06T00:19:43.208Z,1010.51
2018-10-06T00:20:43.225Z,1010.52
2018-10-06T00:21:43.245Z,1010.5
2018-10-06T00:22:43.264Z,1010.47
2018-10-06T00:23:43.283Z,1010.51
2018-10-06T00:24:43.301Z,1010.5
2018-10-06T00:25:43.320Z,1010.49
2018-10-06T00:26:43.338Z,1010.47
2018-10-06T00:27:43.357Z,1010.44
2018-10-06T00:28:43.376Z,1010.46
2018-10-06T00:29:43.394Z,1010.44
2018-10-06T00:30:43.413Z,1010.42
2018-10-06T00:31:43.430Z,1010.44
2018-10-06T00:32:43.450Z,1010.44
2018-10-06T00:34:43.485Z,1010.44
2018-10-06T00:35:43.505Z,1010.41
2018-10-06T00:36:43.526Z,1010.43
2018-10-06T00:37:43.540Z,1010.44
2018-10-06T00:38:43.560Z,1010.41
2018-10-06T00:39:43.580Z,1010.41
2018-10-06T00:40:43.596Z,1010.41
2018-10-06T00:41:43.616Z,1010.42
2018-10-06T00:42:43.733Z,1010.4
2018-10-06T00:43:43.656Z,1010.36
2018-10-06T00:44:43.671Z,1010.34
2018-10-06T00:45:43.689Z,1010.39
2018-10-06T00:46:43.706Z,1010.38
2018-10-06T00:47:43.726Z,1010.34
2018-10-06T00:48:43.742Z,1010.31
2018-10-06T00:50:43.783Z,1010.26
2018-10-06T00:51:43.798Z,1010.28
2018-10-06T00:52:43.817Z,1010.25
2018-10-06T00:53:43.835Z,1010.25
2018-10-06T00:54:43.853Z,1010.2
2018-10-06T00:55:43.872Z,1010.16
2018-10-06T00:56:43.891Z,1010.24
2018-10-06T00:57:43.909Z,1010.18
2018-10-06T00:58:43.927Z,1010.16
2018-10-06T00:59:43.945Z,1010.14
2018-10-06T01:00:43.963Z,1010.14
2018-10-06T01:01:43.982Z,1010.12
2018-10-06T01:02:44.000Z,1010.08
2018-10-06T01:03:44.021Z,1010.04
2018-10-06T01:04:44.037Z,1010.09
2018-10-06T01:06:44.074Z,1010.1
2018-10-06T01:07:44.093Z,1010.06
2018-10-06T01:08:44.110Z,1010.1
2018-10-06T01:09:44.153Z,1010.08
2018-10-06T01:10:44.147Z,1010.12
2018-10-06T01:11:44.169Z,1010.11
2018-10-06T01:12:44.184Z,1010.1
2018-10-06T01:13:44.202Z,1010.1
2018-10-06T01:14:44.219Z,1010.12
2018-10-06T01:15:44.237Z,1010.08
2018-10-06T01:16:44.255Z,1010.08
2018-10-06T01:17:44.278Z,1010.09
2018-10-06T01:18:44.293Z,1010.06
2018-10-06T01:19:44.311Z,1010.08
2018-10-06T01:21:44.348Z,1010.06
2018-10-06T01:22:44.367Z,1010.08
2018-10-06T01:23:44.384Z,1010.01
2018-10-06T01:24:44.403Z,1010.01
2018-10-06T01:25:44.422Z,1009.96
2018-10-06T01:26:44.439Z,1009.95
2018-10-06T01:27:44.458Z,1009.91
2018-10-06T01:28:44.476Z,1009.88
2018-10-06T01:29:44.495Z,1009.87
2018-10-06T01:30:44.511Z,1009.87
2018-10-06T01:31:44.532Z,1009.82
2018-10-06T01:32:44.549Z,1009.86
2018-10-06T01:33:44.567Z,1009.86
2018-10-06T01:34:44.585Z,1009.89
2018-10-06T01:35:44.603Z,1009.86
2018-10-06T01:36:44.621Z,1009.9
2018-10-06T01:37:44.639Z,1009.89
2018-10-06T01:38:44.658Z,1009.89
2018-10-06T01:39:44.677Z,1009.87
2018-10-06T01:40:44.694Z,1009.88
2018-10-06T01:41:44.713Z,1009.92
2018-10-06T01:42:44.731Z,1009.89
2018-10-06T01:43:44.749Z,1009.88
2018-10-06T01:44:44.766Z,1009.89
2018-10-06T01:45:44.785Z,1009.85
2018-10-06T01:46:44.804Z,1009.84
2018-10-06T01:47:44.822Z,1009.83
2018-10-06T01:48:44.842Z,1009.82
2018-10-06T01:49:44.886Z,1009.77
2018-10-06T01:50:44.876Z,1009.84
2018-10-06T01:51:44.894Z,1009.81
2018-10-06T01:53:44.929Z,1009.77
2018-10-06T01:54:44.948Z,1009.83
2018-10-06T01:55:44.966Z,1009.78
2018-10-06T01:56:44.984Z,1009.74
2018-10-06T01:57:45.002Z,1009.75
2018-10-06T01:58:45.021Z,1009.71
2018-10-06T01:59:45.039Z,1009.71
2018-10-06T02:00:45.057Z,1009.65
2018-10-06T02:01:45.075Z,1009.66
2018-10-06T02:02:45.094Z,1009.64
2018-10-06T02:03:45.111Z,1009.63
2018-10-06T02:04:45.129Z,1009.61
2018-10-06T02:05:45.148Z,1009.6
2018-10-06T02:06:45.165Z,1009.61
2018-10-06T02:07:45.184Z,1009.61
2018-10-06T02:09:45.220Z,1009.54
2018-10-06T02:10:45.237Z,1009.54
2018-10-06T02:11:45.255Z,1009.53
2018-10-06T02:12:45.274Z,1009.53
2018-10-06T02:13:45.293Z,1009.53
2018-10-06T02:14:45.309Z,1009.5
2018-10-06T02:15:45.327Z,1009.52
2018-10-06T02:16:45.346Z,1009.48
2018-10-06T02:17:45.363Z,1009.53
2018-10-06T02:18:45.381Z,1009.5
2018-10-06T02:19:45.400Z,1009.48
2018-10-06T02:20:45.418Z,1009.45
2018-10-06T02:21:45.435Z,1009.48
2018-10-06T02:22:45.453Z,1009.41
2018-10-06T02:23:45.472Z,1009.44
2018-10-06T02:25:45.507Z,1009.44
2018-10-06T02:26:45.529Z,1009.48
2018-10-06T02:27:45.544Z,1009.43
2018-10-06T02:28:45.561Z,1009.44
2018-10-06T02:29:45.580Z,1009.49
2018-10-06T02:30:45.598Z,1009.48
2018-10-06T02:31:45.615Z,1009.47
2018-10-06T02:32:45.635Z,1009.48
2018-10-06T02:33:45.650Z,1009.49
2018-10-06T02:34:45.668Z,1009.44
2018-10-06T02:35:45.687Z,1009.43
2018-10-06T02:36:45.792Z,1009.41
2018-10-06T02:37:45.725Z,1009.39
2018-10-06T02:38:45.742Z,1009.39
2018-10-06T02:39:45.759Z,1009.39
2018-10-06T02:41:45.795Z,1009.37
2018-10-06T02:42:45.814Z,1009.37
2018-10-06T02:43:45.831Z,1009.35
2018-10-06T02:44:45.849Z,1009.33
2018-10-06T02:45:45.867Z,1009.35
2018-10-06T02:46:45.885Z,1009.27
2018-10-06T02:47:45.907Z,1009.32
2018-10-06T02:48:45.920Z,1009.34
2018-10-06T02:49:45.939Z,1009.34
2018-10-06T02:50:45.957Z,1009.32
2018-10-06T02:51:45.974Z,1009.3
2018-10-06T02:52:45.994Z,1009.28
2018-10-06T02:53:46.011Z,1009.34
2018-10-06T02:54:46.030Z,1009.28
2018-10-06T02:56:46.066Z,1009.16
2018-10-06T02:57:46.082Z,1009.18
2018-10-06T02:58:46.101Z,1009.15
2018-10-06T02:59:46.119Z,1009.13
2018-10-06T03:00:46.138Z,1009.16
2018-10-06T03:01:46.154Z,1009.08
2018-10-06T03:02:46.173Z,1009.07
2018-10-06T03:03:46.194Z,1009.05
2018-10-06T03:04:46.207Z,1009.07
2018-10-06T03:05:46.226Z,1009.06
2018-10-06T03:06:46.248Z,1009.05
2018-10-06T03:07:46.261Z,1009.01
2018-10-06T03:08:46.279Z,1009.02
2018-10-06T03:09:46.297Z,1009.01
2018-10-06T03:10:46.315Z,1008.99
2018-10-06T03:11:46.334Z,1008.96
2018-10-06T03:12:46.351Z,1008.97
2018-10-06T03:13:46.369Z,1008.97
2018-10-06T03:14:46.387Z,1008.95
2018-10-06T03:15:46.403Z,1008.94
2018-10-06T03:16:46.421Z,1008.9
2018-10-06T03:17:46.438Z,1008.9
2018-10-06T03:18:46.457Z,1008.88
2018-10-06T03:19:46.474Z,1008.87
2018-10-06T03:20:46.491Z,1008.88
2018-10-06T03:21:46.510Z,1008.88
2018-10-06T03:22:46.529Z,1008.89
2018-10-06T03:23:46.546Z,1008.88
2018-10-06T03:24:46.564Z,1008.89
2018-10-06T03:25:46.583Z,1008.88
2018-10-06T03:26:46.600Z,1008.89
2018-10-06T03:28:46.638Z,1008.87
2018-10-06T03:29:46.653Z,1008.85
2018-10-06T03:30:46.671Z,1008.88
2018-10-06T03:31:46.688Z,1008.83
2018-10-06T03:32:46.706Z,1008.83
2018-10-06T03:33:46.724Z,1008.84
2018-10-06T03:34:46.741Z,1008.8
2018-10-06T03:35:46.758Z,1008.83
2018-10-06T03:36:46.776Z,1008.82
2018-10-06T03:37:46.793Z,1008.78
2018-10-06T03:38:46.810Z,1008.78
2018-10-06T03:39:46.833Z,1008.77
2018-10-06T03:40:46.846Z,1008.8
2018-10-06T03:41:46.864Z,1008.74
2018-10-06T03:42:46.883Z,1008.75
2018-10-06T03:44:46.918Z,1008.75
2018-10-06T03:45:46.936Z,1008.76
2018-10-06T03:46:46.952Z,1008.74
2018-10-06T03:47:46.976Z,1008.72
2018-10-06T03:48:46.988Z,1008.75
2018-10-06T03:49:47.006Z,1008.69
2018-10-06T03:50:47.027Z,1008.71
2018-10-06T03:51:47.042Z,1008.72
2018-10-06T03:52:47.059Z,1008.69
2018-10-06T03:53:47.145Z,1008.64
2018-10-06T03:54:47.096Z,1008.67
2018-10-06T03:55:47.112Z,1008.68
2018-10-06T03:56:47.130Z,1008.68
2018-10-06T03:57:47.147Z,1008.66
2018-10-06T03:58:47.165Z,1008.64
2018-10-06T04:00:47.205Z,1008.62
2018-10-06T04:01:47.218Z,1008.63
2018-10-06T04:02:47.235Z,1008.65
2018-10-06T04:03:47.255Z,1008.6
2018-10-06T04:04:47.273Z,1008.57
2018-10-06T04:05:47.288Z,1008.56
2018-10-06T04:06:47.307Z,1008.56
2018-10-06T04:07:47.324Z,1008.52
2018-10-06T04:08:47.345Z,1008.49
2018-10-06T04:09:47.359Z,1008.48
2018-10-06T04:10:47.377Z,1008.48
2018-10-06T04:11:47.402Z,1008.5
2018-10-06T04:12:47.412Z,1008.54
2018-10-06T04:13:47.430Z,1008.48
2018-10-06T04:14:47.447Z,1008.53
2018-10-06T04:16:47.482Z,1008.49
2018-10-06T04:17:47.500Z,1008.47
2018-10-06T04:18:47.522Z,1008.47
2018-10-06T04:19:47.535Z,1008.43
2018-10-06T04:20:47.553Z,1008.41
2018-10-06T04:21:47.574Z,1008.43
2018-10-06T04:22:47.587Z,1008.42
2018-10-06T04:23:47.611Z,1008.43
2018-10-06T04:24:47.623Z,1008.46
2018-10-06T04:25:47.640Z,1008.43
2018-10-06T04:26:47.660Z,1008.38
2018-10-06T04:27:47.676Z,1008.44
2018-10-06T04:28:47.693Z,1008.43
2018-10-06T04:29:47.711Z,1008.43
2018-10-06T04:31:47.746Z,1008.42
2018-10-06T04:32:47.765Z,1008.43
2018-10-06T04:33:47.785Z,1008.42
2018-10-06T04:34:47.800Z,1008.44
2018-10-06T04:35:47.823Z,1008.48
2018-10-06T04:36:47.834Z,1008.46
2018-10-06T04:37:47.854Z,1008.47
2018-10-06T04:38:47.870Z,1008.45
2018-10-06T04:39:47.886Z,1008.46
2018-10-06T04:40:47.904Z,1008.45
2018-10-06T04:41:47.927Z,1008.48
2018-10-06T04:42:47.940Z,1008.44
2018-10-06T04:43:47.956Z,1008.44
2018-10-06T04:44:47.975Z,1008.43
2018-10-06T04:45:47.992Z,1008.41
2018-10-06T04:46:48.010Z,1008.4
2018-10-06T04:47:48.026Z,1008.42
2018-10-06T04:48:48.045Z,1008.41
2018-10-06T04:49:48.062Z,1008.39
2018-10-06T04:50:48.082Z,1008.4
2018-10-06T04:51:48.102Z,1008.36
2018-10-06T04:52:48.116Z,1008.29
2018-10-06T04:53:48.133Z,1008.31
2018-10-06T04:54:48.153Z,1008.3
2018-10-06T04:55:48.169Z,1008.29
2018-10-06T04:56:48.185Z,1008.26
2018-10-06T04:57:48.202Z,1008.28
2018-10-06T04:58:48.218Z,1008.25
2018-10-06T04:59:48.239Z,1008.25
2018-10-06T05:00:48.259Z,1008.24
2018-10-06T05:01:48.272Z,1008.19
2018-10-06T05:03:48.309Z,1008.24
2018-10-06T05:04:48.326Z,1008.3
2018-10-06T05:05:48.341Z,1008.29
2018-10-06T05:06:48.359Z,1008.26
2018-10-06T05:07:48.378Z,1008.27
2018-10-06T05:08:48.396Z,1008.26
2018-10-06T05:09:48.412Z,1008.25
2018-10-06T05:10:48.430Z,1008.22
2018-10-06T05:11:48.447Z,1008.23
2018-10-06T05:12:48.525Z,1008.2
2018-10-06T05:13:48.482Z,1008.22
2018-10-06T05:14:48.500Z,1008.18
2018-10-06T05:15:48.519Z,1008.16
2018-10-06T05:16:48.534Z,1008.15
2018-10-06T05:17:48.552Z,1008.14
2018-10-06T05:19:48.588Z,1008.18
2018-10-06T05:20:48.605Z,1008.16
2018-10-06T05:21:48.622Z,1008.15
2018-10-06T05:22:48.641Z,1008.1
2018-10-06T05:23:48.658Z,1008.09
2018-10-06T05:24:48.675Z,1008.1
2018-10-06T05:25:48.694Z,1008.12
2018-10-06T05:26:48.709Z,1008.11
2018-10-06T05:27:48.726Z,1008.17
2018-10-06T05:28:48.746Z,1008.12
2018-10-06T05:29:48.762Z,1008.11
2018-10-06T05:30:48.781Z,1008.16
2018-10-06T05:31:48.798Z,1008.17
2018-10-06T05:32:48.829Z,1008.18
2018-10-06T05:33:48.833Z,1008.19
2018-10-06T05:35:48.867Z,1008.18
2018-10-06T05:36:48.898Z,1008.19
2018-10-06T05:37:48.902Z,1008.22
2018-10-06T05:38:48.920Z,1008.23
2018-10-06T05:39:48.938Z,1008.24
2018-10-06T05:40:48.955Z,1008.24
2018-10-06T05:41:48.973Z,1008.23
2018-10-06T05:42:48.988Z,1008.19
2018-10-06T05:43:49.008Z,1008.2
2018-10-06T05:44:49.025Z,1008.16
2018-10-06T05:45:49.043Z,1008.17
2018-10-06T05:46:49.065Z,1008.18
2018-10-06T05:47:49.078Z,1008.18
2018-10-06T05:48:49.096Z,1008.19
2018-10-06T05:49:49.161Z,1008.19
2018-10-06T05:51:49.149Z,1008.13
2018-10-06T05:52:49.167Z,1008.1
2018-10-06T05:53:49.183Z,1008.1
2018-10-06T05:54:49.201Z,1008.13
2018-10-06T05:55:49.220Z,1008.18
2018-10-06T05:56:49.236Z,1008.12
2018-10-06T05:57:49.253Z,1008.13
2018-10-06T05:58:49.272Z,1008.14
2018-10-06T05:59:49.290Z,1007.93
2018-10-06T06:00:49.307Z,1007.78
2018-10-06T06:01:49.325Z,1007.76
2018-10-06T06:02:49.346Z,1007.79
2018-10-06T06:03:49.363Z,1007.84
2018-10-06T06:04:49.381Z,1007.85
2018-10-06T06:06:49.424Z,1007.89
2018-10-06T06:07:49.441Z,1007.95
2018-10-06T06:08:49.461Z,1007.91
2018-10-06T06:09:49.521Z,1007.96
2018-10-06T06:10:49.501Z,1008
2018-10-06T06:11:49.522Z,1008.05
2018-10-06T06:12:49.543Z,1008.02
2018-10-06T06:13:49.565Z,1007.98
2018-10-06T06:14:49.586Z,1008.03
2018-10-06T06:15:49.635Z,1008.08
2018-10-06T06:16:49.630Z,1008.21
2018-10-06T06:17:49.655Z,1008.16
2018-10-06T06:18:49.675Z,1008.17
2018-10-06T06:19:49.702Z,1008.22
2018-10-06T06:20:49.723Z,1008.22
2018-10-06T06:21:49.749Z,1008.25
2018-10-06T06:22:49.825Z,1008.22
2018-10-06T06:23:49.810Z,1008.26
2018-10-06T06:24:49.814Z,1008.21
2018-10-06T06:25:49.839Z,1008.24
2018-10-06T06:26:49.862Z,1008.27
2018-10-06T06:27:49.886Z,1008.31
2018-10-06T06:28:49.912Z,1008.33
2018-10-06T06:29:49.936Z,1008.36
2018-10-06T06:30:50.030Z,1008.4
2018-10-06T06:31:49.983Z,1008.43
2018-10-06T06:32:50.014Z,1008.43
2018-10-06T06:33:50.033Z,1008.38
2018-10-06T06:34:50.057Z,1008.44
2018-10-06T06:35:50.082Z,1008.48
2018-10-06T06:36:50.106Z,1008.45
2018-10-06T06:38:50.161Z,1008.5
2018-10-06T06:39:50.183Z,1008.53
2018-10-06T06:40:50.210Z,1008.48
2018-10-06T06:41:50.233Z,1008.52
2018-10-06T06:42:50.259Z,1008.54
2018-10-06T06:43:50.386Z,1008.53
2018-10-06T06:44:50.311Z,1008.59
2018-10-06T06:45:50.337Z,1008.56
2018-10-06T06:46:50.363Z,1008.56
2018-10-06T06:47:50.387Z,1008.58
2018-10-06T06:48:50.414Z,1008.59
2018-10-06T06:49:50.447Z,1008.66
2018-10-06T06:50:50.468Z,1008.66
2018-10-06T06:51:50.494Z,1008.66
2018-10-06T06:52:50.520Z,1008.72
2018-10-06T06:54:50.630Z,1008.74
2018-10-06T06:55:50.600Z,1008.75
2018-10-06T06:56:50.635Z,1008.76
2018-10-06T06:57:50.654Z,1008.74
2018-10-06T06:58:50.681Z,1008.71
2018-10-06T06:59:50.707Z,1008.67
2018-10-06T07:00:50.735Z,1008.7
2018-10-06T07:01:50.762Z,1008.7
2018-10-06T07:02:50.788Z,1008.65
2018-10-06T07:03:50.814Z,1008.66
2018-10-06T07:04:50.846Z,1008.62
2018-10-06T07:05:50.892Z,1008.62
2018-10-06T07:06:50.895Z,1008.57
2018-10-06T07:07:51.222Z,1008.54
2018-10-06T07:08:50.950Z,1008.53
2018-10-06T07:10:51.003Z,1008.48
2018-10-06T07:11:51.033Z,1008.46
2018-10-06T07:12:51.058Z,1008.4
2018-10-06T07:13:51.084Z,1008.45
2018-10-06T07:14:51.110Z,1008.4
2018-10-06T07:15:51.138Z,1008.45
2018-10-06T07:16:51.170Z,1008.46
2018-10-06T07:17:51.191Z,1008.44
2018-10-06T07:18:51.220Z,1008.45
2018-10-06T07:19:51.245Z,1008.41
2018-10-06T07:20:51.371Z,1008.36
2018-10-06T07:21:51.298Z,1008.3
2018-10-06T07:22:51.325Z,1008.3
2018-10-06T07:23:51.352Z,1008.32
2018-10-06T07:24:51.378Z,1008.28
2018-10-06T07:26:51.431Z,1008.28
2018-10-06T07:27:51.458Z,1008.22
2018-10-06T07:28:51.484Z,1008.21
2018-10-06T07:29:51.510Z,1008.2
2018-10-06T07:30:51.538Z,1008.25
2018-10-06T07:31:51.563Z,1008.16
2018-10-06T07:32:51.595Z,1008.16
2018-10-06T07:33:51.616Z,1008.16
2018-10-06T07:34:51.643Z,1008.11
2018-10-06T07:35:51.668Z,1008.15
2018-10-06T07:36:51.695Z,1008.11
2018-10-06T07:37:51.721Z,1008.16
2018-10-06T07:38:51.748Z,1008.08
2018-10-06T07:39:51.773Z,1008.08
2018-10-06T07:41:51.827Z,1008.05
2018-10-06T07:42:51.851Z,1008.03
2018-10-06T07:43:51.879Z,1008.02
2018-10-06T07:44:51.939Z,1008
2018-10-06T07:45:51.932Z,1008.03
2018-10-06T07:46:51.956Z,1008.05
2018-10-06T07:47:51.989Z,1007.99
2018-10-06T07:48:52.010Z,1008
2018-10-06T07:49:52.035Z,1007.96
2018-10-06T07:50:52.060Z,1007.94
2018-10-06T07:51:52.088Z,1007.89
2018-10-06T07:52:52.115Z,1007.85
2018-10-06T07:53:52.138Z,1007.81
2018-10-06T07:54:52.166Z,1007.8
2018-10-06T07:55:52.191Z,1007.78
2018-10-06T07:56:52.246Z,1007.78
2018-10-06T07:57:52.242Z,1007.77
2018-10-06T07:58:52.268Z,1007.76
2018-10-06T07:59:52.295Z,1007.78
2018-10-06T08:00:52.319Z,1007.79
2018-10-06T08:01:52.345Z,1007.8
2018-10-06T08:02:52.372Z,1007.81
2018-10-06T08:03:52.397Z,1007.79
2018-10-06T08:04:52.423Z,1007.83
2018-10-06T08:05:52.448Z,1007.82
2018-10-06T08:06:52.474Z,1007.8
2018-10-06T08:07:52.500Z,1007.83
2018-10-06T08:08:52.524Z,1007.81
2018-10-06T08:09:52.550Z,1007.85
2018-10-06T08:10:52.575Z,1007.86
2018-10-06T08:11:52.599Z,1007.86
2018-10-06T08:13:52.651Z,1007.89
2018-10-06T08:14:52.677Z,1007.86
2018-10-06T08:15:52.702Z,1007.86
2018-10-06T08:16:52.727Z,1007.85
2018-10-06T08:17:52.754Z,1007.88
2018-10-06T08:18:52.778Z,1007.86
2018-10-06T08:19:52.807Z,1007.86
2018-10-06T08:20:52.829Z,1007.83
2018-10-06T08:21:52.855Z,1007.81
2018-10-06T08:22:52.879Z,1007.8
2018-10-06T08:23:52.913Z,1007.74
2018-10-06T08:24:52.932Z,1007.76
2018-10-06T08:25:52.956Z,1007.76
2018-10-06T08:26:52.982Z,1007.73
2018-10-06T08:27:53.007Z,1007.74
2018-10-06T08:29:53.057Z,1007.7
2018-10-06T08:30:53.083Z,1007.69
2018-10-06T08:31:53.109Z,1007.66
2018-10-06T08:32:53.134Z,1007.64
2018-10-06T08:33:53.159Z,1007.66
2018-10-06T08:34:53.184Z,1007.67
2018-10-06T08:35:53.209Z,1007.63
2018-10-06T08:36:53.236Z,1007.64
2018-10-06T08:37:53.261Z,1007.59
2018-10-06T08:38:53.287Z,1007.58
2018-10-06T08:39:53.315Z,1007.57
2018-10-06T08:40:53.338Z,1007.58
2018-10-06T08:41:53.363Z,1007.53
2018-10-06T08:42:53.465Z,1007.55
2018-10-06T08:43:53.414Z,1007.55
2018-10-06T08:45:53.465Z,1007.58
2018-10-06T08:46:53.493Z,1007.51
2018-10-06T08:47:53.516Z,1007.58
2018-10-06T08:48:53.540Z,1007.56
2018-10-06T08:49:53.589Z,1007.55
2018-10-06T08:50:53.593Z,1007.52
2018-10-06T08:51:53.621Z,1007.51
2018-10-06T08:52:53.643Z,1007.47
2018-10-06T08:53:53.668Z,1007.38
2018-10-06T08:54:53.696Z,1007.47
2018-10-06T08:55:53.790Z,1007.48
2018-10-06T08:56:53.746Z,1007.43
2018-10-06T08:57:53.772Z,1007.47
2018-10-06T08:58:53.798Z,1007.45
2018-10-06T08:59:53.822Z,1007.47
2018-10-06T09:01:53.874Z,1007.43
2018-10-06T09:02:53.913Z,1007.47
2018-10-06T09:03:53.925Z,1007.43
2018-10-06T09:04:53.951Z,1007.42
2018-10-06T09:05:53.976Z,1007.42
2018-10-06T09:06:54.002Z,1007.41
2018-10-06T09:07:54.032Z,1007.41
2018-10-06T09:08:54.054Z,1007.36
2018-10-06T09:09:54.079Z,1007.34
2018-10-06T09:10:54.171Z,1007.4
2018-10-06T09:11:54.129Z,1007.36
2018-10-06T09:12:54.155Z,1007.32
2018-10-06T09:13:54.186Z,1007.29
2018-10-06T09:14:54.206Z,1007.29
2018-10-06T09:16:54.260Z,1007.28
2018-10-06T09:17:54.343Z,1007.27
2018-10-06T09:18:54.318Z,1007.26
2018-10-06T09:19:54.341Z,1007.25
2018-10-06T09:20:54.465Z,1007.25
2018-10-06T09:21:54.385Z,1007.22
2018-10-06T09:22:54.412Z,1007.21
2018-10-06T09:23:54.437Z,1007.22
2018-10-06T09:24:54.462Z,1007.21
2018-10-06T09:25:54.487Z,1007.21
2018-10-06T09:26:54.514Z,1007.21
2018-10-06T09:27:54.540Z,1007.24
2018-10-06T09:28:54.565Z,1007.19
2018-10-06T09:29:54.591Z,1007.21
2018-10-06T09:30:54.617Z,1007.18
2018-10-06T09:31:54.642Z,1007.18
2018-10-06T09:32:54.668Z,1007.17
2018-10-06T09:33:54.694Z,1007.14
2018-10-06T09:34:54.720Z,1007.1
2018-10-06T09:35:54.746Z,1007.12
2018-10-06T09:36:54.770Z,1007.11
2018-10-06T09:37:54.798Z,1007.07
2018-10-06T09:38:54.824Z,1007.12
2018-10-06T09:39:54.848Z,1007.12
2018-10-06T09:40:54.873Z,1007.12
2018-10-06T09:41:55.154Z,1007.1
2018-10-06T09:42:54.991Z,1007.07
2018-10-06T09:43:54.954Z,1007.06
2018-10-06T09:44:54.979Z,1007.03
2018-10-06T09:45:55.004Z,1007.02
2018-10-06T09:46:55.029Z,1007.01
2018-10-06T09:48:55.082Z,1007.03
2018-10-06T09:49:55.108Z,1006.98
2018-10-06T09:50:55.135Z,1006.98
2018-10-06T09:51:55.159Z,1007
2018-10-06T09:52:55.185Z,1007.05
2018-10-06T09:53:55.212Z,1007.07
2018-10-06T09:54:55.237Z,1007
2018-10-06T09:55:55.263Z,1007.03
2018-10-06T09:56:55.390Z,1007.05
2018-10-06T09:57:55.317Z,1007.05
2018-10-06T09:58:55.341Z,1007.04
2018-10-06T09:59:55.367Z,1007.06
2018-10-06T10:00:55.393Z,1007.05
2018-10-06T10:01:55.420Z,1007.02
2018-10-06T10:02:55.444Z,1007.01
2018-10-06T10:04:55.498Z,1007.06
2018-10-06T10:05:55.548Z,1007.03
2018-10-06T10:06:55.557Z,1006.98
2018-10-06T10:07:55.575Z,1007.02
2018-10-06T10:08:55.599Z,1007.02
2018-10-06T10:09:55.710Z,1006.98
2018-10-06T10:10:55.651Z,1006.98
2018-10-06T10:11:55.678Z,1006.97
2018-10-06T10:12:55.703Z,1006.93
2018-10-06T10:13:55.729Z,1006.9
2018-10-06T10:14:55.755Z,1006.9
2018-10-06T10:15:55.781Z,1006.87
2018-10-06T10:16:55.833Z,1006.84
2018-10-06T10:17:55.912Z,1006.91
2018-10-06T10:18:55.858Z,1006.84
2018-10-06T10:20:55.908Z,1006.87
2018-10-06T10:21:55.990Z,1006.87
2018-10-06T10:22:56.004Z,1006.84
2018-10-06T10:23:56.113Z,1006.83
2018-10-06T10:24:56.009Z,1006.82
2018-10-06T10:25:56.034Z,1006.8
2018-10-06T10:26:56.067Z,1006.79
2018-10-06T10:27:56.085Z,1006.77
2018-10-06T10:28:56.205Z,1006.75
2018-10-06T10:29:56.136Z,1006.76
2018-10-06T10:30:56.160Z,1006.72
2018-10-06T10:31:56.186Z,1006.68
2018-10-06T10:32:56.218Z,1006.66
2018-10-06T10:33:56.236Z,1006.65
2018-10-06T10:34:56.261Z,1006.63
2018-10-06T10:36:56.310Z,1006.56
2018-10-06T10:37:56.336Z,1006.56
2018-10-06T10:38:56.363Z,1006.54
2018-10-06T10:39:56.386Z,1006.52
2018-10-06T10:40:56.410Z,1006.58
2018-10-06T10:41:56.434Z,1006.57
2018-10-06T10:42:56.459Z,1006.54
2018-10-06T10:43:56.524Z,1006.48
2018-10-06T10:44:56.510Z,1006.52
2018-10-06T10:45:56.534Z,1006.5
2018-10-06T10:46:56.562Z,1006.49
2018-10-06T10:47:56.584Z,1006.48
2018-10-06T10:48:56.610Z,1006.49
2018-10-06T10:49:56.633Z,1006.46
2018-10-06T10:51:56.683Z,1006.4
2018-10-06T10:52:56.707Z,1006.4
2018-10-06T10:53:56.733Z,1006.4
2018-10-06T10:54:56.757Z,1006.4
2018-10-06T10:55:56.794Z,1006.42
2018-10-06T10:56:56.805Z,1006.37
2018-10-06T10:57:56.830Z,1006.4
2018-10-06T10:58:56.905Z,1006.4
2018-10-06T10:59:57.153Z,1006.45
2018-10-06T11:00:56.907Z,1006.38
2018-10-06T11:01:56.929Z,1006.43
2018-10-06T11:02:56.954Z,1006.41
2018-10-06T11:03:57.033Z,1006.4
2018-10-06T11:04:57.006Z,1006.4
2018-10-06T11:05:57.026Z,1006.38
2018-10-06T11:06:57.051Z,1006.37
2018-10-06T11:07:57.076Z,1006.33
2018-10-06T11:08:57.100Z,1006.33
2018-10-06T11:09:57.124Z,1006.3
2018-10-06T11:10:57.147Z,1006.34
2018-10-06T11:11:57.174Z,1006.3
2018-10-06T11:12:57.200Z,1006.3
2018-10-06T11:13:57.223Z,1006.26
2018-10-06T11:14:57.247Z,1006.32
2018-10-06T11:15:57.271Z,1006.26
2018-10-06T11:16:57.296Z,1006.32
2018-10-06T11:17:57.321Z,1006.24
2018-10-06T11:18:57.445Z,1006.24
2018-10-06T11:19:57.370Z,1006.19
2018-10-06T11:20:57.395Z,1006.2
2018-10-06T11:21:57.420Z,1006.16
2018-10-06T11:23:57.468Z,1006.14
2018-10-06T11:24:57.614Z,1006.11
2018-10-06T11:25:57.517Z,1006.08
2018-10-06T11:26:57.541Z,1006.09
2018-10-06T11:27:57.566Z,1006.1
2018-10-06T11:28:57.591Z,1006.06
2018-10-06T11:29:57.615Z,1006.03
2018-10-06T11:30:57.638Z,1006.05
2018-10-06T11:31:57.667Z,1005.95
2018-10-06T11:32:57.687Z,1005.96
2018-10-06T11:33:57.716Z,1005.93
2018-10-06T11:34:57.739Z,1005.96
2018-10-06T11:35:57.761Z,1005.93
2018-10-06T11:36:57.785Z,1005.88
2018-10-06T11:37:57.834Z,1005.79
2018-10-06T11:39:57.860Z,1005.81
2018-10-06T11:40:57.884Z,1005.81
2018-10-06T11:41:57.908Z,1005.79
2018-10-06T11:42:57.933Z,1005.78
2018-10-06T11:43:57.957Z,1005.77
2018-10-06T11:44:57.982Z,1005.77
2018-10-06T11:45:58.006Z,1005.75
2018-10-06T11:46:58.032Z,1005.8
2018-10-06T11:47:58.055Z,1005.75
2018-10-06T11:48:58.082Z,1005.78
2018-10-06T11:49:58.236Z,1005.73
2018-10-06T11:50:58.130Z,1005.74
2018-10-06T11:51:58.156Z,1005.72
2018-10-06T11:52:58.179Z,1005.74
2018-10-06T11:53:58.204Z,1005.68
2018-10-06T11:55:58.252Z,1005.66
2018-10-06T11:56:58.277Z,1005.61
2018-10-06T11:57:58.302Z,1005.61
2018-10-06T11:58:58.326Z,1005.63
2018-10-06T11:59:58.441Z,1005.63
2018-10-06T12:00:58.375Z,1005.61
2018-10-06T12:01:58.448Z,1005.63
2018-10-06T12:02:58.424Z,1005.58
2018-10-06T12:03:58.449Z,1005.56
2018-10-06T12:04:58.474Z,1005.54
2018-10-06T12:05:58.498Z,1005.53
2018-10-06T12:06:58.522Z,1005.5
2018-10-06T12:07:58.552Z,1005.45
2018-10-06T12:08:58.572Z,1005.46
2018-10-06T12:09:58.596Z,1005.49
2018-10-06T12:11:58.646Z,1005.53
2018-10-06T12:12:58.671Z,1005.54
2018-10-06T12:13:58.695Z,1005.55
2018-10-06T12:14:58.720Z,1005.53
2018-10-06T12:15:58.745Z,1005.48
2018-10-06T12:16:58.769Z,1005.48
2018-10-06T12:17:58.794Z,1005.45
2018-10-06T12:18:58.817Z,1005.48
2018-10-06T12:19:58.844Z,1005.41
2018-10-06T12:20:58.868Z,1005.43
2018-10-06T12:21:58.893Z,1005.4
2018-10-06T12:22:58.917Z,1005.4
2018-10-06T12:23:58.941Z,1005.41
2018-10-06T12:24:58.967Z,1005.35
2018-10-06T12:26:59.017Z,1005.32
2018-10-06T12:27:59.042Z,1005.31
2018-10-06T12:28:59.066Z,1005.26
2018-10-06T12:29:59.092Z,1005.31
2018-10-06T12:30:59.116Z,1005.32
2018-10-06T12:31:59.140Z,1005.27
2018-10-06T12:32:59.168Z,1005.27
2018-10-06T12:33:59.189Z,1005.22
2018-10-06T12:34:59.281Z,1005.2
2018-10-06T12:35:59.239Z,1005.19
2018-10-06T12:36:59.265Z,1005.18
2018-10-06T12:37:59.290Z,1005.17
2018-10-06T12:38:59.314Z,1005.21
2018-10-06T12:39:59.338Z,1005.13
2018-10-06T12:40:59.366Z,1005.09
2018-10-06T12:41:59.400Z,1005.1
2018-10-06T12:42:59.412Z,1005.09
2018-10-06T12:43:59.438Z,1005.1
2018-10-06T12:44:59.462Z,1005.01
2018-10-06T12:45:59.487Z,1005
2018-10-06T12:46:59.512Z,1005.02
2018-10-06T12:47:59.536Z,1005.05
2018-10-06T12:48:59.561Z,1005.06